createdAt,value
2023-02-08T18:05:12.330Z,102720.91
2023-02-08T18:10:17.953Z,102711.25
2023-02-08T18:15:24.270Z,102709.91
2023-02-08T18:20:32.006Z,102710.41
2023-02-08T18:25:37.225Z,102701.19
2023-02-08T18:30:42.554Z,102698.47
2023-02-08T18:35:53.801Z,102716.13
2023-02-08T18:40:59.261Z,102718.47
2023-02-08T18:46:04.888Z,102712.31
2023-02-08T18:51:14.524Z,102711.97
2023-02-08T18:56:26.144Z,102711.66
2023-02-08T19:01:31.919Z,102713.78
2023-02-08T19:06:40.895Z,102704.97
2023-02-08T19:11:47.400Z,102702.78
2023-02-08T19:16:52.691Z,102698.22
2023-02-08T19:22:00.395Z,102696.19
2023-02-08T19:27:05.615Z,102699.06
2023-02-08T19:32:10.791Z,102701.25
2023-02-08T19:37:18.566Z,102703.59
2023-02-08T19:42:24.092Z,102691.25
2023-02-08T19:47:48.533Z,102701.94
2023-02-08T19:52:57.239Z,102693.97
2023-02-08T19:58:02.479Z,102698.59
2023-02-08T20:03:20.814Z,102695.69
2023-02-08T20:08:30.285Z,102692.78
2023-02-08T20:13:35.584Z,102688.81
2023-02-08T20:18:41.016Z,102688.34
2023-02-08T20:23:48.806Z,102691.22
2023-02-08T20:28:55.509Z,102692.59
2023-02-08T20:34:03.350Z,102685.38
2023-02-08T20:39:11.975Z,102676.50
2023-02-08T20:44:17.920Z,102685.53
2023-02-08T20:49:25.652Z,102668.16
2023-02-08T20:54:33.678Z,102673.00
2023-02-08T20:59:38.752Z,102679.44
2023-02-08T21:04:43.991Z,102682.53
2023-02-08T21:09:51.925Z,102688.03
2023-02-08T21:14:57.038Z,102691.91
2023-02-08T21:20:02.183Z,102691.59
2023-02-08T21:25:10.578Z,102687.06
2023-02-08T21:30:16.074Z,102691.00
2023-02-08T21:35:21.621Z,102692.66
2023-02-08T21:40:29.301Z,102682.53
2023-02-08T21:45:34.720Z,102673.13
2023-02-08T21:50:53.841Z,102666.31
2023-02-08T21:56:01.620Z,102668.84
2023-02-08T22:01:07.815Z,102662.03
2023-02-08T22:06:25.410Z,102652.84
2023-02-08T22:11:33.185Z,102661.50
